WST706 MYGF-MYNN
Flight info
| Callsign | WST706 |
|---|---|
| Flight time | 0h 30m |
| Altitude | 15000 |
| Route | ZFP BR63V HANKX/N0300F140 BR63V ZQA |
| Aircraft | E145/M-SDFGIRW/S |
Departure
| Time | 2026-04-30 14:14 |
|---|---|
| Airport | Grand Bahama International Airport (MYGF) |
Arrival
| Time | 2026-04-30 14:44 |
|---|---|
| Airport | Lynden Pindling International Airport (MYNN) |
| Time | Latitude | Longitude | Altitude | Speed | Heading |
|---|---|---|---|---|---|
| 2026-04-30 13:52 | 26.54862 | -78.69780 | 12 ft | 0 kts | 229° |
| 2026-04-30 14:06 | 26.54862 | -78.69784 | 12 ft | 1 kts | 272° |
| 2026-04-30 14:07 | 26.54912 | -78.69828 | 12 ft | 7 kts | 287° |
| 2026-04-30 14:07 | 26.54916 | -78.69887 | 12 ft | 9 kts | 270° |
| 2026-04-30 14:07 | 26.54915 | -78.69962 | 12 ft | 11 kts | 271° |
| 2026-04-30 14:08 | 26.54921 | -78.70167 | 12 ft | 18 kts | 272° |
| 2026-04-30 14:08 | 26.54950 | -78.70248 | 12 ft | 11 kts | 8° |
| 2026-04-30 14:08 | 26.55087 | -78.70128 | 12 ft | 15 kts | 40° |
| 2026-04-30 14:09 | 26.55169 | -78.70049 | 12 ft | 17 kts | 40° |
| 2026-04-30 14:09 | 26.55260 | -78.69960 | 12 ft | 19 kts | 43° |
| 2026-04-30 14:09 | 26.55470 | -78.69754 | 12 ft | 23 kts | 42° |
| 2026-04-30 14:10 | 26.55592 | -78.69633 | 12 ft | 25 kts | 39° |
| 2026-04-30 14:10 | 26.55720 | -78.69512 | 12 ft | 26 kts | 41° |
| 2026-04-30 14:10 | 26.55792 | -78.69428 | 12 ft | 12 kts | 55° |
| 2026-04-30 14:10 | 26.55835 | -78.69341 | 12 ft | 14 kts | 60° |
| 2026-04-30 14:11 | 26.55885 | -78.69243 | 12 ft | 16 kts | 60° |
| 2026-04-30 14:11 | 26.55938 | -78.69130 | 12 ft | 18 kts | 60° |
| 2026-04-30 14:11 | 26.56001 | -78.69006 | 12 ft | 20 kts | 60° |
| 2026-04-30 14:11 | 26.56070 | -78.68869 | 12 ft | 22 kts | 60° |
| 2026-04-30 14:12 | 26.56115 | -78.68787 | 12 ft | 7 kts | 39° |
| 2026-04-30 14:12 | 26.56144 | -78.68778 | 12 ft | 4 kts | 356° |
| 2026-04-30 14:12 | 26.56175 | -78.68790 | 12 ft | 6 kts | 336° |
| 2026-04-30 14:12 | 26.56202 | -78.68805 | 12 ft | 7 kts | 329° |
| 2026-04-30 14:13 | 26.56211 | -78.68868 | 12 ft | 0 kts | 244° |
| 2026-04-30 14:13 | 26.56211 | -78.68870 | 12 ft | 2 kts | 244° |
| 2026-04-30 14:13 | 26.56121 | -78.69048 | 12 ft | 66 kts | 240° |
| 2026-04-30 14:13 | 26.55825 | -78.69650 | 13 ft | 127 kts | 242° |
| 2026-04-30 14:14 | 26.55404 | -78.70533 | 247 ft | 152 kts | 240° |
| 2026-04-30 14:14 | 26.54877 | -78.71449 | 952 ft | 152 kts | 229° |
| 2026-04-30 14:14 | 26.54177 | -78.72082 | 1787 ft | 141 kts | 210° |
| 2026-04-30 14:14 | 26.53281 | -78.72378 | 2252 ft | 160 kts | 184° |
| 2026-04-30 14:15 | 26.52328 | -78.72085 | 2919 ft | 156 kts | 141° |
| 2026-04-30 14:15 | 26.51820 | -78.71173 | 3411 ft | 162 kts | 103° |
| 2026-04-30 14:15 | 26.51554 | -78.70024 | 3752 ft | 179 kts | 105° |
| 2026-04-30 14:15 | 26.51316 | -78.68709 | 4128 ft | 199 kts | 98° |
| 2026-04-30 14:16 | 26.51124 | -78.67252 | 4515 ft | 219 kts | 98° |
| 2026-04-30 14:16 | 26.50913 | -78.65666 | 4899 ft | 239 kts | 98° |
| 2026-04-30 14:16 | 26.50669 | -78.63944 | 5296 ft | 257 kts | 102° |
| 2026-04-30 14:16 | 26.50002 | -78.62237 | 5836 ft | 269 kts | 122° |
| 2026-04-30 14:17 | 26.49047 | -78.60716 | 6332 ft | 280 kts | 126° |
| 2026-04-30 14:17 | 26.47958 | -78.59132 | 6923 ft | 288 kts | 127° |
| 2026-04-30 14:17 | 26.46843 | -78.57550 | 7543 ft | 293 kts | 127° |
| 2026-04-30 14:17 | 26.45679 | -78.55909 | 8183 ft | 298 kts | 128° |
| 2026-04-30 14:18 | 26.44516 | -78.54273 | 8815 ft | 302 kts | 128° |
| 2026-04-30 14:18 | 26.43347 | -78.52628 | 9444 ft | 305 kts | 128° |
| 2026-04-30 14:18 | 26.40858 | -78.49127 | 10771 ft | 311 kts | 128° |
| 2026-04-30 14:19 | 26.38392 | -78.45663 | 12045 ft | 315 kts | 128° |
| 2026-04-30 14:19 | 26.37120 | -78.43877 | 12701 ft | 316 kts | 128° |
| 2026-04-30 14:19 | 26.35839 | -78.42079 | 13359 ft | 317 kts | 128° |
| 2026-04-30 14:20 | 26.34555 | -78.40276 | 14019 ft | 317 kts | 128° |
| 2026-04-30 14:20 | 26.33267 | -78.38470 | 14672 ft | 312 kts | 128° |
| 2026-04-30 14:20 | 26.30619 | -78.34759 | 14998 ft | 334 kts | 128° |
| 2026-04-30 14:21 | 26.29170 | -78.32730 | 14993 ft | 350 kts | 128° |
| 2026-04-30 14:21 | 26.27667 | -78.30625 | 14994 ft | 363 kts | 129° |
| 2026-04-30 14:21 | 26.24443 | -78.26117 | 14996 ft | 386 kts | 128° |
| 2026-04-30 14:22 | 26.22789 | -78.23807 | 14998 ft | 395 kts | 128° |
| 2026-04-30 14:22 | 26.19415 | -78.19096 | 15000 ft | 409 kts | 128° |
| 2026-04-30 14:22 | 26.17788 | -78.16823 | 15005 ft | 412 kts | 128° |
| 2026-04-30 14:23 | 26.14232 | -78.11864 | 14999 ft | 419 kts | 128° |
| 2026-04-30 14:23 | 26.10599 | -78.06801 | 14992 ft | 423 kts | 128° |
| 2026-04-30 14:24 | 26.06980 | -78.01765 | 14992 ft | 425 kts | 128° |
| 2026-04-30 14:24 | 26.05270 | -77.99388 | 14991 ft | 423 kts | 128° |
| 2026-04-30 14:25 | 26.01958 | -77.94785 | 14989 ft | 419 kts | 128° |
| 2026-04-30 14:25 | 25.98679 | -77.90234 | 14994 ft | 417 kts | 128° |
| 2026-04-30 14:26 | 25.95190 | -77.85395 | 14992 ft | 415 kts | 128° |
| 2026-04-30 14:26 | 25.93434 | -77.82962 | 14994 ft | 414 kts | 128° |
| 2026-04-30 14:26 | 25.90166 | -77.78437 | 15000 ft | 412 kts | 128° |
| 2026-04-30 14:27 | 25.88460 | -77.76077 | 14989 ft | 412 kts | 128° |
| 2026-04-30 14:27 | 25.86681 | -77.73618 | 14991 ft | 411 kts | 128° |
| 2026-04-30 14:27 | 25.84917 | -77.71181 | 14558 ft | 397 kts | 128° |
| 2026-04-30 14:28 | 25.81606 | -77.66607 | 13593 ft | 369 kts | 128° |
| 2026-04-30 14:28 | 25.80099 | -77.64527 | 13134 ft | 360 kts | 128° |
| 2026-04-30 14:28 | 25.78701 | -77.62599 | 12694 ft | 352 kts | 128° |
| 2026-04-30 14:28 | 25.77322 | -77.60699 | 12260 ft | 344 kts | 128° |
| 2026-04-30 14:29 | 25.74658 | -77.57027 | 11419 ft | 331 kts | 128° |
| 2026-04-30 14:29 | 25.72366 | -77.53870 | 10787 ft | 317 kts | 127° |
| 2026-04-30 14:30 | 25.67663 | -77.48844 | 9883 ft | 287 kts | 167° |
| 2026-04-30 14:31 | 25.63898 | -77.48453 | 9421 ft | 270 kts | 178° |
| 2026-04-30 14:31 | 25.60184 | -77.48203 | 8948 ft | 271 kts | 178° |
| 2026-04-30 14:31 | 25.58366 | -77.48088 | 8720 ft | 273 kts | 178° |
| 2026-04-30 14:32 | 25.54560 | -77.47850 | 8255 ft | 276 kts | 178° |
| 2026-04-30 14:32 | 25.52734 | -77.47740 | 8025 ft | 273 kts | 179° |
| 2026-04-30 14:32 | 25.51030 | -77.48064 | 7799 ft | 263 kts | 201° |
| 2026-04-30 14:33 | 25.49389 | -77.48734 | 7566 ft | 257 kts | 201° |
| 2026-04-30 14:33 | 25.46240 | -77.50015 | 7100 ft | 247 kts | 201° |
| 2026-04-30 14:33 | 25.44698 | -77.50644 | 6857 ft | 243 kts | 201° |
| 2026-04-30 14:34 | 25.43243 | -77.51237 | 6596 ft | 230 kts | 201° |
| 2026-04-30 14:34 | 25.41797 | -77.51826 | 6385 ft | 227 kts | 201° |
| 2026-04-30 14:34 | 25.40347 | -77.52417 | 6148 ft | 226 kts | 200° |
| 2026-04-30 14:34 | 25.38879 | -77.53015 | 5908 ft | 224 kts | 200° |
| 2026-04-30 14:35 | 25.36569 | -77.53956 | 5524 ft | 222 kts | 200° |
| 2026-04-30 14:35 | 25.34741 | -77.54700 | 5225 ft | 221 kts | 200° |
| 2026-04-30 14:35 | 25.33339 | -77.55270 | 4977 ft | 219 kts | 200° |
| 2026-04-30 14:36 | 25.32083 | -77.55781 | 4728 ft | 209 kts | 200° |
| 2026-04-30 14:36 | 25.30867 | -77.56275 | 4497 ft | 200 kts | 200° |
| 2026-04-30 14:36 | 25.29686 | -77.56756 | 4262 ft | 192 kts | 200° |
| 2026-04-30 14:36 | 25.28571 | -77.57209 | 4026 ft | 186 kts | 200° |
| 2026-04-30 14:37 | 25.27459 | -77.57661 | 3795 ft | 181 kts | 200° |
| 2026-04-30 14:37 | 25.26354 | -77.58110 | 3559 ft | 176 kts | 200° |
| 2026-04-30 14:37 | 25.25266 | -77.58552 | 3319 ft | 172 kts | 200° |
| 2026-04-30 14:37 | 25.24225 | -77.58975 | 3131 ft | 172 kts | 200° |
| 2026-04-30 14:38 | 25.23175 | -77.59402 | 2915 ft | 176 kts | 200° |
| 2026-04-30 14:38 | 25.22118 | -77.59831 | 2700 ft | 179 kts | 200° |
| 2026-04-30 14:38 | 25.20941 | -77.60309 | 2456 ft | 181 kts | 200° |
| 2026-04-30 14:38 | 25.19836 | -77.60757 | 2272 ft | 173 kts | 199° |
| 2026-04-30 14:39 | 25.18730 | -77.61183 | 2031 ft | 171 kts | 191° |
| 2026-04-30 14:39 | 25.17640 | -77.60954 | 1991 ft | 155 kts | 148° |
| 2026-04-30 14:39 | 25.16791 | -77.60426 | 1980 ft | 146 kts | 148° |
| 2026-04-30 14:40 | 25.15378 | -77.58913 | 1742 ft | 162 kts | 136° |
| 2026-04-30 14:40 | 25.14622 | -77.58057 | 1611 ft | 167 kts | 136° |
| 2026-04-30 14:40 | 25.13847 | -77.57188 | 1590 ft | 165 kts | 136° |
| 2026-04-30 14:40 | 25.13110 | -77.56361 | 1588 ft | 162 kts | 135° |
| 2026-04-30 14:41 | 25.12386 | -77.55558 | 1587 ft | 159 kts | 136° |
| 2026-04-30 14:41 | 25.11742 | -77.54748 | 1587 ft | 156 kts | 130° |
| 2026-04-30 14:41 | 25.11166 | -77.53937 | 1574 ft | 134 kts | 130° |
| 2026-04-30 14:41 | 25.10606 | -77.53217 | 1611 ft | 151 kts | 138° |
| 2026-04-30 14:42 | 25.09886 | -77.52558 | 1553 ft | 147 kts | 145° |
| 2026-04-30 14:42 | 25.09158 | -77.51952 | 1351 ft | 147 kts | 143° |
| 2026-04-30 14:42 | 25.08468 | -77.51285 | 1076 ft | 143 kts | 138° |
| 2026-04-30 14:42 | 25.07867 | -77.50594 | 833 ft | 139 kts | 133° |
| 2026-04-30 14:43 | 25.07302 | -77.49918 | 640 ft | 136 kts | 136° |
| 2026-04-30 14:43 | 25.06724 | -77.49272 | 491 ft | 134 kts | 138° |
| 2026-04-30 14:43 | 25.06119 | -77.48615 | 310 ft | 135 kts | 137° |
| 2026-04-30 14:43 | 25.05517 | -77.47950 | 148 ft | 135 kts | 137° |
| 2026-04-30 14:44 | 25.04927 | -77.47288 | 30 ft | 124 kts | 137° |
| 2026-04-30 14:44 | 25.04419 | -77.46741 | 22 ft | 73 kts | 131° |
| 2026-04-30 14:44 | 25.04195 | -77.46454 | 23 ft | 23 kts | 123° |
| 2026-04-30 14:44 | 25.04123 | -77.46300 | 23 ft | 25 kts | 111° |
| 2026-04-30 14:45 | 25.04111 | -77.46192 | 23 ft | 11 kts | 56° |
| 2026-04-30 14:45 | 25.04160 | -77.46179 | 22 ft | 9 kts | 332° |
| 2026-04-30 14:45 | 25.04209 | -77.46231 | 23 ft | 11 kts | 314° |
| 2026-04-30 14:45 | 25.04269 | -77.46298 | 23 ft | 14 kts | 316° |
| 2026-04-30 14:46 | 25.04338 | -77.46374 | 23 ft | 16 kts | 315° |
| 2026-04-30 14:46 | 25.04416 | -77.46460 | 23 ft | 18 kts | 315° |
| 2026-04-30 14:46 | 25.04505 | -77.46555 | 23 ft | 20 kts | 314° |
| 2026-04-30 14:46 | 25.04566 | -77.46626 | 22 ft | 21 kts | 312° |
| 2026-04-30 14:47 | 25.04674 | -77.46735 | 22 ft | 13 kts | 338° |
| 2026-04-30 14:47 | 25.04729 | -77.46716 | 22 ft | 9 kts | 43° |
| 2026-04-30 14:47 | 25.04777 | -77.46666 | 23 ft | 11 kts | 43° |
| 2026-04-30 14:47 | 25.04817 | -77.46622 | 22 ft | 6 kts | 45° |
| 2026-04-30 14:48 | 25.04849 | -77.46606 | 23 ft | 1 kts | 7° |
| 2026-04-30 14:48 | 25.04854 | -77.46605 | 23 ft | 0 kts | 7° |